sensor_id;sensor_type;location;lat;lon;timestamp;P1;durP1;ratioP1;P2;durP2;ratioP2
75645;SDS011;64237;52.438;13.240;2023-03-20T00:00:31;6.93;;;2.22;;
75645;SDS011;64237;52.438;13.240;2023-03-20T00:03:01;5.68;;;2.30;;
75645;SDS011;64237;52.438;13.240;2023-03-20T00:05:30;5.68;;;2.20;;
75645;SDS011;64237;52.438;13.240;2023-03-20T00:08:02;6.45;;;2.13;;
75645;SDS011;64237;52.438;13.240;2023-03-20T00:10:40;4.40;;;2.03;;
75645;SDS011;64237;52.438;13.240;2023-03-20T00:13:10;5.20;;;2.20;;
75645;SDS011;64237;52.438;13.240;2023-03-20T00:15:41;5.60;;;2.15;;
75645;SDS011;64237;52.438;13.240;2023-03-20T00:18:15;5.63;;;2.28;;
75645;SDS011;64237;52.438;13.240;2023-03-20T00:20:45;5.68;;;2.40;;
75645;SDS011;64237;52.438;13.240;2023-03-20T00:23:11;6.00;;;2.30;;
75645;SDS011;64237;52.438;13.240;2023-03-20T00:25:41;4.07;;;2.13;;
75645;SDS011;64237;52.438;13.240;2023-03-20T00:28:28;6.50;;;2.28;;
75645;SDS011;64237;52.438;13.240;2023-03-20T00:33:55;6.30;;;2.50;;
75645;SDS011;64237;52.438;13.240;2023-03-20T00:36:22;6.05;;;2.42;;
75645;SDS011;64237;52.438;13.240;2023-03-20T00:38:48;5.15;;;2.13;;
75645;SDS011;64237;52.438;13.240;2023-03-20T00:41:19;5.63;;;2.33;;
75645;SDS011;64237;52.438;13.240;2023-03-20T00:43:45;6.72;;;2.63;;
75645;SDS011;64237;52.438;13.240;2023-03-20T00:46:13;6.10;;;2.20;;
75645;SDS011;64237;52.438;13.240;2023-03-20T00:48:39;4.57;;;2.22;;
75645;SDS011;64237;52.438;13.240;2023-03-20T00:51:07;7.50;;;2.45;;
75645;SDS011;64237;52.438;13.240;2023-03-20T00:53:33;6.93;;;2.50;;
75645;SDS011;64237;52.438;13.240;2023-03-20T00:55:58;6.18;;;2.42;;
75645;SDS011;64237;52.438;13.240;2023-03-20T00:58:24;6.20;;;2.63;;
75645;SDS011;64237;52.438;13.240;2023-03-20T01:00:50;5.07;;;2.40;;
75645;SDS011;64237;52.438;13.240;2023-03-20T01:03:20;5.43;;;2.30;;
75645;SDS011;64237;52.438;13.240;2023-03-20T01:05:50;6.00;;;2.47;;
75645;SDS011;64237;52.438;13.240;2023-03-20T01:10:52;4.95;;;2.33;;
75645;SDS011;64237;52.438;13.240;2023-03-20T01:15:49;5.63;;;2.55;;
75645;SDS011;64237;52.438;13.240;2023-03-20T01:18:17;5.78;;;2.50;;
75645;SDS011;64237;52.438;13.240;2023-03-20T01:20:43;5.72;;;2.40;;
75645;SDS011;64237;52.438;13.240;2023-03-20T01:23:09;6.43;;;2.60;;
75645;SDS011;64237;52.438;13.240;2023-03-20T01:25:35;6.22;;;2.38;;
75645;SDS011;64237;52.438;13.240;2023-03-20T01:28:01;7.28;;;3.03;;
75645;SDS011;64237;52.438;13.240;2023-03-20T01:30:35;7.72;;;2.28;;
75645;SDS011;64237;52.438;13.240;2023-03-20T01:33:17;5.65;;;2.58;;
75645;SDS011;64237;52.438;13.240;2023-03-20T01:35:45;6.28;;;2.30;;
75645;SDS011;64237;52.438;13.240;2023-03-20T01:38:13;7.13;;;2.63;;
75645;SDS011;64237;52.438;13.240;2023-03-20T01:40:50;4.95;;;2.28;;
75645;SDS011;64237;52.438;13.240;2023-03-20T01:43:24;6.47;;;2.42;;
75645;SDS011;64237;52.438;13.240;2023-03-20T01:45:56;7.00;;;2.38;;
75645;SDS011;64237;52.438;13.240;2023-03-20T01:48:24;6.53;;;2.90;;
75645;SDS011;64237;52.438;13.240;2023-03-20T01:50:59;7.03;;;2.92;;
75645;SDS011;64237;52.438;13.240;2023-03-20T01:53:24;6.07;;;2.37;;
75645;SDS011;64237;52.438;13.240;2023-03-20T01:55:53;5.88;;;2.78;;
75645;SDS011;64237;52.438;13.240;2023-03-20T01:58:24;6.18;;;2.50;;
75645;SDS011;64237;52.438;13.240;2023-03-20T02:01:01;4.85;;;2.20;;
75645;SDS011;64237;52.438;13.240;2023-03-20T02:03:28;5.15;;;2.30;;
75645;SDS011;64237;52.438;13.240;2023-03-20T02:05:54;8.30;;;2.40;;
75645;SDS011;64237;52.438;13.240;2023-03-20T02:08:28;5.35;;;2.03;;
75645;SDS011;64237;52.438;13.240;2023-03-20T02:11:01;5.75;;;2.58;;
75645;SDS011;64237;52.438;13.240;2023-03-20T02:13:28;5.50;;;2.30;;
75645;SDS011;64237;52.438;13.240;2023-03-20T02:18:40;5.68;;;2.25;;
75645;SDS011;64237;52.438;13.240;2023-03-20T02:32:57;4.93;;;2.15;;
75645;SDS011;64237;52.438;13.240;2023-03-20T02:35:23;6.47;;;2.58;;
75645;SDS011;64237;52.438;13.240;2023-03-20T02:37:55;5.05;;;2.40;;
75645;SDS011;64237;52.438;13.240;2023-03-20T02:43:17;5.47;;;2.40;;
75645;SDS011;64237;52.438;13.240;2023-03-20T02:45:54;4.57;;;2.20;;
75645;SDS011;64237;52.438;13.240;2023-03-20T02:57:03;5.75;;;2.75;;
75645;SDS011;64237;52.438;13.240;2023-03-20T03:02:06;5.05;;;2.33;;
75645;SDS011;64237;52.438;13.240;2023-03-20T03:04:35;6.65;;;2.72;;
75645;SDS011;64237;52.438;13.240;2023-03-20T03:07:04;6.85;;;2.67;;
75645;SDS011;64237;52.438;13.240;2023-03-20T03:12:15;7.15;;;2.30;;
75645;SDS011;64237;52.438;13.240;2023-03-20T03:14:45;5.10;;;2.42;;
75645;SDS011;64237;52.438;13.240;2023-03-20T03:17:13;5.28;;;2.42;;
75645;SDS011;64237;52.438;13.240;2023-03-20T03:19:42;5.40;;;2.50;;
75645;SDS011;64237;52.438;13.240;2023-03-20T03:22:12;6.25;;;2.42;;
75645;SDS011;64237;52.438;13.240;2023-03-20T03:24:43;8.85;;;2.50;;
75645;SDS011;64237;52.438;13.240;2023-03-20T03:27:20;5.63;;;2.38;;
75645;SDS011;64237;52.438;13.240;2023-03-20T03:29:57;6.95;;;2.45;;
75645;SDS011;64237;52.438;13.240;2023-03-20T03:32:36;5.25;;;2.35;;
75645;SDS011;64237;52.438;13.240;2023-03-20T03:35:12;8.20;;;2.58;;
75645;SDS011;64237;52.438;13.240;2023-03-20T03:40:37;5.43;;;2.45;;
75645;SDS011;64237;52.438;13.240;2023-03-20T03:43:31;6.47;;;2.78;;
75645;SDS011;64237;52.438;13.240;2023-03-20T03:46:01;5.55;;;2.63;;
75645;SDS011;64237;52.438;13.240;2023-03-20T03:48:34;5.65;;;2.83;;
75645;SDS011;64237;52.438;13.240;2023-03-20T03:51:06;6.00;;;2.80;;
75645;SDS011;64237;52.438;13.240;2023-03-20T03:53:37;6.85;;;2.60;;
75645;SDS011;64237;52.438;13.240;2023-03-20T03:56:07;6.57;;;2.55;;
75645;SDS011;64237;52.438;13.240;2023-03-20T03:58:40;6.78;;;3.38;;
75645;SDS011;64237;52.438;13.240;2023-03-20T04:01:09;7.78;;;3.30;;
75645;SDS011;64237;52.438;13.240;2023-03-20T04:03:38;5.93;;;3.08;;
75645;SDS011;64237;52.438;13.240;2023-03-20T04:06:07;5.85;;;2.85;;
75645;SDS011;64237;52.438;13.240;2023-03-20T04:08:38;6.45;;;3.17;;
75645;SDS011;64237;52.438;13.240;2023-03-20T04:11:04;6.72;;;2.80;;
75645;SDS011;64237;52.438;13.240;2023-03-20T04:13:30;6.38;;;2.65;;
75645;SDS011;64237;52.438;13.240;2023-03-20T04:15:55;7.20;;;3.20;;
75645;SDS011;64237;52.438;13.240;2023-03-20T04:18:21;6.22;;;3.40;;
75645;SDS011;64237;52.438;13.240;2023-03-20T04:20:46;7.68;;;3.45;;
75645;SDS011;64237;52.438;13.240;2023-03-20T04:23:13;7.38;;;3.13;;
75645;SDS011;64237;52.438;13.240;2023-03-20T04:25:39;8.77;;;3.47;;
75645;SDS011;64237;52.438;13.240;2023-03-20T04:28:04;6.65;;;3.30;;
75645;SDS011;64237;52.438;13.240;2023-03-20T04:30:30;8.10;;;3.70;;
75645;SDS011;64237;52.438;13.240;2023-03-20T04:32:56;8.63;;;4.03;;
75645;SDS011;64237;52.438;13.240;2023-03-20T04:35:22;8.02;;;4.32;;
75645;SDS011;64237;52.438;13.240;2023-03-20T04:37:47;9.95;;;4.43;;
75645;SDS011;64237;52.438;13.240;2023-03-20T04:40:12;9.27;;;4.05;;
75645;SDS011;64237;52.438;13.240;2023-03-20T04:42:38;8.93;;;4.03;;
75645;SDS011;64237;52.438;13.240;2023-03-20T04:45:04;8.80;;;4.38;;
75645;SDS011;64237;52.438;13.240;2023-03-20T04:47:30;8.30;;;4.20;;
75645;SDS011;64237;52.438;13.240;2023-03-20T04:49:56;10.98;;;4.72;;
75645;SDS011;64237;52.438;13.240;2023-03-20T04:52:21;10.17;;;4.70;;
75645;SDS011;64237;52.438;13.240;2023-03-20T04:54:47;9.35;;;4.53;;
75645;SDS011;64237;52.438;13.240;2023-03-20T04:57:12;9.17;;;4.47;;
75645;SDS011;64237;52.438;13.240;2023-03-20T04:59:37;9.20;;;4.07;;
75645;SDS011;64237;52.438;13.240;2023-03-20T05:02:03;9.93;;;4.55;;
75645;SDS011;64237;52.438;13.240;2023-03-20T05:04:28;9.73;;;4.70;;
75645;SDS011;64237;52.438;13.240;2023-03-20T05:06:54;10.82;;;5.32;;
75645;SDS011;64237;52.438;13.240;2023-03-20T05:09:20;10.68;;;5.25;;
75645;SDS011;64237;52.438;13.240;2023-03-20T05:11:46;10.85;;;5.60;;
75645;SDS011;64237;52.438;13.240;2023-03-20T05:14:11;11.77;;;5.72;;
75645;SDS011;64237;52.438;13.240;2023-03-20T05:16:37;11.52;;;5.43;;
75645;SDS011;64237;52.438;13.240;2023-03-20T05:19:03;11.82;;;5.80;;
75645;SDS011;64237;52.438;13.240;2023-03-20T05:21:28;10.93;;;5.25;;
75645;SDS011;64237;52.438;13.240;2023-03-20T05:23:54;10.60;;;5.75;;
75645;SDS011;64237;52.438;13.240;2023-03-20T05:26:19;10.90;;;5.27;;
75645;SDS011;64237;52.438;13.240;2023-03-20T05:28:44;10.77;;;5.25;;
75645;SDS011;64237;52.438;13.240;2023-03-20T05:31:10;11.95;;;5.53;;
75645;SDS011;64237;52.438;13.240;2023-03-20T05:33:36;14.13;;;5.57;;
75645;SDS011;64237;52.438;13.240;2023-03-20T05:36:02;10.88;;;5.80;;
75645;SDS011;64237;52.438;13.240;2023-03-20T05:38:28;13.88;;;6.38;;
75645;SDS011;64237;52.438;13.240;2023-03-20T05:40:57;13.85;;;5.95;;
75645;SDS011;64237;52.438;13.240;2023-03-20T05:45:48;14.50;;;6.47;;
75645;SDS011;64237;52.438;13.240;2023-03-20T05:48:13;16.35;;;6.88;;
75645;SDS011;64237;52.438;13.240;2023-03-20T05:50:39;14.48;;;7.13;;
75645;SDS011;64237;52.438;13.240;2023-03-20T05:53:05;14.23;;;7.05;;
75645;SDS011;64237;52.438;13.240;2023-03-20T05:55:31;14.52;;;7.25;;
75645;SDS011;64237;52.438;13.240;2023-03-20T05:57:57;14.13;;;6.97;;
75645;SDS011;64237;52.438;13.240;2023-03-20T06:00:22;13.55;;;6.78;;
75645;SDS011;64237;52.438;13.240;2023-03-20T06:02:48;13.32;;;6.88;;
75645;SDS011;64237;52.438;13.240;2023-03-20T06:05:13;12.90;;;6.57;;
75645;SDS011;64237;52.438;13.240;2023-03-20T06:07:39;15.10;;;6.78;;
75645;SDS011;64237;52.438;13.240;2023-03-20T06:10:04;14.45;;;6.93;;
75645;SDS011;64237;52.438;13.240;2023-03-20T06:12:30;13.95;;;7.00;;
75645;SDS011;64237;52.438;13.240;2023-03-20T06:14:55;15.03;;;6.83;;
75645;SDS011;64237;52.438;13.240;2023-03-20T06:17:20;12.35;;;6.25;;
75645;SDS011;64237;52.438;13.240;2023-03-20T06:19:46;17.13;;;8.10;;
75645;SDS011;64237;52.438;13.240;2023-03-20T06:22:11;17.77;;;8.00;;
75645;SDS011;64237;52.438;13.240;2023-03-20T06:24:36;16.13;;;8.30;;
75645;SDS011;64237;52.438;13.240;2023-03-20T06:27:02;17.73;;;8.35;;
75645;SDS011;64237;52.438;13.240;2023-03-20T06:29:27;15.27;;;7.35;;
75645;SDS011;64237;52.438;13.240;2023-03-20T06:31:53;17.48;;;8.57;;
75645;SDS011;64237;52.438;13.240;2023-03-20T06:34:18;19.40;;;9.23;;
75645;SDS011;64237;52.438;13.240;2023-03-20T06:36:44;17.70;;;9.10;;
75645;SDS011;64237;52.438;13.240;2023-03-20T06:39:09;21.17;;;9.25;;
75645;SDS011;64237;52.438;13.240;2023-03-20T06:41:34;15.80;;;7.97;;
75645;SDS011;64237;52.438;13.240;2023-03-20T06:44:00;24.83;;;10.95;;
75645;SDS011;64237;52.438;13.240;2023-03-20T06:46:26;21.75;;;11.27;;
75645;SDS011;64237;52.438;13.240;2023-03-20T06:48:51;24.50;;;9.68;;
75645;SDS011;64237;52.438;13.240;2023-03-20T06:51:17;26.95;;;11.65;;
75645;SDS011;64237;52.438;13.240;2023-03-20T06:53:42;25.42;;;11.05;;
75645;SDS011;64237;52.438;13.240;2023-03-20T06:56:08;26.40;;;11.27;;
75645;SDS011;64237;52.438;13.240;2023-03-20T06:58:35;26.38;;;11.85;;
75645;SDS011;64237;52.438;13.240;2023-03-20T07:01:01;25.58;;;11.80;;
75645;SDS011;64237;52.438;13.240;2023-03-20T07:03:26;26.93;;;11.17;;
75645;SDS011;64237;52.438;13.240;2023-03-20T07:05:52;26.63;;;12.27;;
75645;SDS011;64237;52.438;13.240;2023-03-20T07:08:17;28.85;;;12.25;;
75645;SDS011;64237;52.438;13.240;2023-03-20T07:10:43;30.50;;;12.52;;
75645;SDS011;64237;52.438;13.240;2023-03-20T07:13:08;29.58;;;13.27;;
75645;SDS011;64237;52.438;13.240;2023-03-20T07:15:34;27.73;;;12.38;;
75645;SDS011;64237;52.438;13.240;2023-03-20T07:18:00;29.50;;;12.48;;
75645;SDS011;64237;52.438;13.240;2023-03-20T07:20:25;30.85;;;13.02;;
75645;SDS011;64237;52.438;13.240;2023-03-20T07:22:51;28.05;;;11.75;;
75645;SDS011;64237;52.438;13.240;2023-03-20T07:25:16;27.75;;;11.25;;
75645;SDS011;64237;52.438;13.240;2023-03-20T07:27:42;27.23;;;11.50;;
75645;SDS011;64237;52.438;13.240;2023-03-20T07:30:14;27.27;;;12.20;;
75645;SDS011;64237;52.438;13.240;2023-03-20T07:32:39;25.38;;;11.60;;
75645;SDS011;64237;52.438;13.240;2023-03-20T07:35:05;27.13;;;10.38;;
75645;SDS011;64237;52.438;13.240;2023-03-20T07:37:31;27.20;;;10.90;;
75645;SDS011;64237;52.438;13.240;2023-03-20T07:39:56;31.67;;;12.05;;
75645;SDS011;64237;52.438;13.240;2023-03-20T07:42:21;28.40;;;11.05;;
75645;SDS011;64237;52.438;13.240;2023-03-20T07:44:47;28.35;;;11.02;;
75645;SDS011;64237;52.438;13.240;2023-03-20T07:47:12;25.48;;;10.38;;
75645;SDS011;64237;52.438;13.240;2023-03-20T07:49:37;30.55;;;11.30;;
75645;SDS011;64237;52.438;13.240;2023-03-20T07:52:03;24.92;;;10.65;;
75645;SDS011;64237;52.438;13.240;2023-03-20T07:54:28;27.35;;;9.90;;
75645;SDS011;64237;52.438;13.240;2023-03-20T07:56:54;25.05;;;10.68;;
75645;SDS011;64237;52.438;13.240;2023-03-20T07:59:19;25.13;;;10.65;;
75645;SDS011;64237;52.438;13.240;2023-03-20T08:01:45;26.45;;;9.73;;
75645;SDS011;64237;52.438;13.240;2023-03-20T08:04:10;27.20;;;10.45;;
75645;SDS011;64237;52.438;13.240;2023-03-20T08:06:36;28.15;;;10.93;;
75645;SDS011;64237;52.438;13.240;2023-03-20T08:09:03;24.40;;;10.73;;
75645;SDS011;64237;52.438;13.240;2023-03-20T08:11:29;27.27;;;10.30;;
75645;SDS011;64237;52.438;13.240;2023-03-20T08:13:54;29.15;;;12.27;;
75645;SDS011;64237;52.438;13.240;2023-03-20T08:16:20;24.75;;;10.23;;
75645;SDS011;64237;52.438;13.240;2023-03-20T08:18:45;28.20;;;11.15;;
75645;SDS011;64237;52.438;13.240;2023-03-20T08:21:10;26.80;;;10.70;;
75645;SDS011;64237;52.438;13.240;2023-03-20T08:23:35;26.27;;;10.67;;
75645;SDS011;64237;52.438;13.240;2023-03-20T08:26:01;30.27;;;10.57;;
75645;SDS011;64237;52.438;13.240;2023-03-20T08:28:26;24.63;;;9.77;;
75645;SDS011;64237;52.438;13.240;2023-03-20T08:30:52;24.08;;;9.70;;
75645;SDS011;64237;52.438;13.240;2023-03-20T08:33:17;28.63;;;10.48;;
75645;SDS011;64237;52.438;13.240;2023-03-20T08:35:43;26.73;;;9.77;;
75645;SDS011;64237;52.438;13.240;2023-03-20T08:38:19;22.77;;;8.88;;
75645;SDS011;64237;52.438;13.240;2023-03-20T08:40:45;27.27;;;9.73;;
75645;SDS011;64237;52.438;13.240;2023-03-20T08:43:10;27.08;;;10.10;;
75645;SDS011;64237;52.438;13.240;2023-03-20T08:45:35;22.75;;;10.00;;
75645;SDS011;64237;52.438;13.240;2023-03-20T08:48:01;21.73;;;8.77;;
75645;SDS011;64237;52.438;13.240;2023-03-20T08:50:32;21.98;;;8.13;;
75645;SDS011;64237;52.438;13.240;2023-03-20T08:52:57;22.35;;;9.23;;
75645;SDS011;64237;52.438;13.240;2023-03-20T08:55:23;21.23;;;8.43;;
75645;SDS011;64237;52.438;13.240;2023-03-20T08:57:48;19.70;;;8.45;;
75645;SDS011;64237;52.438;13.240;2023-03-20T09:00:14;20.23;;;8.33;;
75645;SDS011;64237;52.438;13.240;2023-03-20T09:02:40;21.40;;;8.95;;
75645;SDS011;64237;52.438;13.240;2023-03-20T09:05:06;23.13;;;7.85;;
75645;SDS011;64237;52.438;13.240;2023-03-20T09:07:32;23.23;;;8.48;;
75645;SDS011;64237;52.438;13.240;2023-03-20T09:09:58;22.13;;;8.02;;
75645;SDS011;64237;52.438;13.240;2023-03-20T09:12:24;22.20;;;8.43;;
75645;SDS011;64237;52.438;13.240;2023-03-20T09:14:50;20.75;;;8.02;;
75645;SDS011;64237;52.438;13.240;2023-03-20T09:17:15;22.63;;;8.38;;
75645;SDS011;64237;52.438;13.240;2023-03-20T09:19:40;19.40;;;7.72;;
75645;SDS011;64237;52.438;13.240;2023-03-20T09:22:09;17.02;;;7.10;;
75645;SDS011;64237;52.438;13.240;2023-03-20T09:24:36;19.45;;;8.00;;
75645;SDS011;64237;52.438;13.240;2023-03-20T09:27:02;19.73;;;7.60;;
75645;SDS011;64237;52.438;13.240;2023-03-20T09:29:27;18.98;;;7.95;;
75645;SDS011;64237;52.438;13.240;2023-03-20T09:31:52;18.55;;;7.22;;
75645;SDS011;64237;52.438;13.240;2023-03-20T09:34:18;18.20;;;7.22;;
75645;SDS011;64237;52.438;13.240;2023-03-20T09:36:43;18.35;;;7.55;;
75645;SDS011;64237;52.438;13.240;2023-03-20T09:39:09;18.15;;;6.63;;
75645;SDS011;64237;52.438;13.240;2023-03-20T09:41:35;18.05;;;7.15;;
75645;SDS011;64237;52.438;13.240;2023-03-20T09:52:15;14.80;;;6.28;;
75645;SDS011;64237;52.438;13.240;2023-03-20T09:54:43;15.10;;;5.57;;
75645;SDS011;64237;52.438;13.240;2023-03-20T10:00:19;11.98;;;4.60;;
75645;SDS011;64237;52.438;13.240;2023-03-20T10:02:50;13.15;;;4.95;;
75645;SDS011;64237;52.438;13.240;2023-03-20T10:05:25;13.90;;;5.53;;
75645;SDS011;64237;52.438;13.240;2023-03-20T10:07:53;12.85;;;4.72;;
75645;SDS011;64237;52.438;13.240;2023-03-20T10:10:22;13.85;;;5.13;;
75645;SDS011;64237;52.438;13.240;2023-03-20T10:13:01;11.80;;;4.40;;
75645;SDS011;64237;52.438;13.240;2023-03-20T10:18:17;9.90;;;3.83;;
75645;SDS011;64237;52.438;13.240;2023-03-20T10:20:54;12.35;;;4.72;;
75645;SDS011;64237;52.438;13.240;2023-03-20T10:23:41;11.90;;;4.63;;
75645;SDS011;64237;52.438;13.240;2023-03-20T10:39:19;12.00;;;4.32;;
75645;SDS011;64237;52.438;13.240;2023-03-20T10:41:59;10.60;;;3.88;;
75645;SDS011;64237;52.438;13.240;2023-03-20T10:44:31;9.48;;;3.50;;
75645;SDS011;64237;52.438;13.240;2023-03-20T10:46:58;9.95;;;3.85;;
75645;SDS011;64237;52.438;13.240;2023-03-20T10:49:43;10.85;;;3.97;;
75645;SDS011;64237;52.438;13.240;2023-03-20T10:52:13;12.75;;;3.88;;
75645;SDS011;64237;52.438;13.240;2023-03-20T10:54:45;10.82;;;3.78;;
75645;SDS011;64237;52.438;13.240;2023-03-20T10:57:35;11.13;;;3.92;;
75645;SDS011;64237;52.438;13.240;2023-03-20T11:00:06;12.20;;;4.07;;
75645;SDS011;64237;52.438;13.240;2023-03-20T11:02:38;12.23;;;4.18;;
75645;SDS011;64237;52.438;13.240;2023-03-20T11:05:10;10.57;;;4.00;;
75645;SDS011;64237;52.438;13.240;2023-03-20T11:07:50;11.20;;;3.95;;
75645;SDS011;64237;52.438;13.240;2023-03-20T11:10:26;10.15;;;4.00;;
75645;SDS011;64237;52.438;13.240;2023-03-20T11:12:54;9.80;;;3.60;;
75645;SDS011;64237;52.438;13.240;2023-03-20T11:17:55;10.13;;;3.80;;
75645;SDS011;64237;52.438;13.240;2023-03-20T11:20:22;11.00;;;3.97;;
75645;SDS011;64237;52.438;13.240;2023-03-20T11:22:48;10.18;;;4.15;;
75645;SDS011;64237;52.438;13.240;2023-03-20T11:25:27;11.60;;;4.15;;
75645;SDS011;64237;52.438;13.240;2023-03-20T11:27:55;10.27;;;3.92;;
75645;SDS011;64237;52.438;13.240;2023-03-20T11:30:22;12.48;;;4.35;;
75645;SDS011;64237;52.438;13.240;2023-03-20T11:32:48;10.07;;;3.90;;
75645;SDS011;64237;52.438;13.240;2023-03-20T11:37:48;10.98;;;3.92;;
75645;SDS011;64237;52.438;13.240;2023-03-20T11:45:26;11.18;;;3.83;;
75645;SDS011;64237;52.438;13.240;2023-03-20T11:47:58;12.35;;;4.72;;
75645;SDS011;64237;52.438;13.240;2023-03-20T11:50:35;11.60;;;4.28;;
75645;SDS011;64237;52.438;13.240;2023-03-20T11:53:03;10.80;;;4.53;;
75645;SDS011;64237;52.438;13.240;2023-03-20T11:55:45;10.50;;;4.20;;
75645;SDS011;64237;52.438;13.240;2023-03-20T11:58:25;11.88;;;4.03;;
75645;SDS011;64237;52.438;13.240;2023-03-20T12:00:53;10.38;;;3.95;;
75645;SDS011;64237;52.438;13.240;2023-03-20T12:03:39;14.05;;;4.50;;
75645;SDS011;64237;52.438;13.240;2023-03-20T12:06:20;8.95;;;3.70;;
75645;SDS011;64237;52.438;13.240;2023-03-20T12:08:53;10.27;;;3.70;;
75645;SDS011;64237;52.438;13.240;2023-03-20T12:11:51;11.00;;;3.70;;
75645;SDS011;64237;52.438;13.240;2023-03-20T12:14:42;10.45;;;4.00;;
75645;SDS011;64237;52.438;13.240;2023-03-20T12:19:55;9.43;;;4.10;;
75645;SDS011;64237;52.438;13.240;2023-03-20T12:22:25;13.32;;;4.53;;
75645;SDS011;64237;52.438;13.240;2023-03-20T12:25:21;14.02;;;4.53;;
75645;SDS011;64237;52.438;13.240;2023-03-20T12:28:16;12.57;;;4.40;;
75645;SDS011;64237;52.438;13.240;2023-03-20T12:31:05;11.13;;;4.60;;
75645;SDS011;64237;52.438;13.240;2023-03-20T12:36:35;12.98;;;5.07;;
75645;SDS011;64237;52.438;13.240;2023-03-20T12:39:04;13.60;;;4.97;;
75645;SDS011;64237;52.438;13.240;2023-03-20T12:47:35;11.20;;;4.45;;
75645;SDS011;64237;52.438;13.240;2023-03-20T13:05:42;14.63;;;5.18;;
75645;SDS011;64237;52.438;13.240;2023-03-20T13:08:25;12.55;;;4.75;;
75645;SDS011;64237;52.438;13.240;2023-03-20T13:11:15;12.82;;;5.00;;
75645;SDS011;64237;52.438;13.240;2023-03-20T13:19:21;15.52;;;4.88;;
75645;SDS011;64237;52.438;13.240;2023-03-20T13:35:48;13.10;;;5.20;;
75645;SDS011;64237;52.438;13.240;2023-03-20T13:38:17;18.10;;;5.65;;
75645;SDS011;64237;52.438;13.240;2023-03-20T13:40:57;13.45;;;5.35;;
75645;SDS011;64237;52.438;13.240;2023-03-20T13:43:30;12.85;;;5.75;;
75645;SDS011;64237;52.438;13.240;2023-03-20T13:48:36;13.63;;;5.75;;
75645;SDS011;64237;52.438;13.240;2023-03-20T14:04:29;14.30;;;5.73;;
75645;SDS011;64237;52.438;13.240;2023-03-20T14:06:56;14.45;;;5.85;;
75645;SDS011;64237;52.438;13.240;2023-03-20T14:09:24;13.57;;;5.70;;
75645;SDS011;64237;52.438;13.240;2023-03-20T14:11:54;16.52;;;6.55;;
75645;SDS011;64237;52.438;13.240;2023-03-20T14:14:25;17.98;;;6.20;;
75645;SDS011;64237;52.438;13.240;2023-03-20T14:17:06;14.23;;;5.78;;
75645;SDS011;64237;52.438;13.240;2023-03-20T14:19:40;13.80;;;5.57;;
75645;SDS011;64237;52.438;13.240;2023-03-20T14:22:06;14.73;;;6.30;;
75645;SDS011;64237;52.438;13.240;2023-03-20T14:24:39;14.00;;;5.43;;
75645;SDS011;64237;52.438;13.240;2023-03-20T14:27:16;15.98;;;5.70;;
75645;SDS011;64237;52.438;13.240;2023-03-20T14:29:44;16.40;;;6.22;;
75645;SDS011;64237;52.438;13.240;2023-03-20T14:34:51;13.77;;;5.83;;
75645;SDS011;64237;52.438;13.240;2023-03-20T14:40:18;12.27;;;3.80;;
75645;SDS011;64237;52.438;13.240;2023-03-20T14:42:55;13.65;;;6.13;;
75645;SDS011;64237;52.438;13.240;2023-03-20T14:51:03;14.75;;;6.30;;
75645;SDS011;64237;52.438;13.240;2023-03-20T14:53:38;14.00;;;6.22;;
75645;SDS011;64237;52.438;13.240;2023-03-20T14:56:05;15.60;;;6.30;;
75645;SDS011;64237;52.438;13.240;2023-03-20T15:03:41;13.27;;;6.00;;
75645;SDS011;64237;52.438;13.240;2023-03-20T15:06:11;15.55;;;6.72;;
75645;SDS011;64237;52.438;13.240;2023-03-20T15:08:41;19.00;;;6.57;;
75645;SDS011;64237;52.438;13.240;2023-03-20T15:11:11;16.75;;;6.10;;
75645;SDS011;64237;52.438;13.240;2023-03-20T15:13:38;15.35;;;6.10;;
75645;SDS011;64237;52.438;13.240;2023-03-20T15:16:06;13.80;;;6.18;;
75645;SDS011;64237;52.438;13.240;2023-03-20T15:21:39;13.18;;;5.90;;
75645;SDS011;64237;52.438;13.240;2023-03-20T15:24:05;16.65;;;7.20;;
75645;SDS011;64237;52.438;13.240;2023-03-20T15:26:32;16.80;;;6.72;;
75645;SDS011;64237;52.438;13.240;2023-03-20T15:29:00;15.90;;;6.68;;
75645;SDS011;64237;52.438;13.240;2023-03-20T15:31:29;16.92;;;6.38;;
75645;SDS011;64237;52.438;13.240;2023-03-20T15:33:57;15.48;;;6.63;;
75645;SDS011;64237;52.438;13.240;2023-03-20T15:36:25;15.70;;;6.50;;
75645;SDS011;64237;52.438;13.240;2023-03-20T15:38:52;14.82;;;6.65;;
75645;SDS011;64237;52.438;13.240;2023-03-20T15:41:27;15.25;;;6.30;;
75645;SDS011;64237;52.438;13.240;2023-03-20T15:44:33;17.08;;;6.63;;
75645;SDS011;64237;52.438;13.240;2023-03-20T15:49:38;16.70;;;6.60;;
75645;SDS011;64237;52.438;13.240;2023-03-20T15:52:19;16.60;;;6.05;;
75645;SDS011;64237;52.438;13.240;2023-03-20T15:54:48;14.10;;;5.55;;
75645;SDS011;64237;52.438;13.240;2023-03-20T15:57:23;16.02;;;6.00;;
75645;SDS011;64237;52.438;13.240;2023-03-20T15:59:51;17.10;;;6.03;;
75645;SDS011;64237;52.438;13.240;2023-03-20T16:02:17;12.48;;;5.65;;
75645;SDS011;64237;52.438;13.240;2023-03-20T16:04:50;17.92;;;6.72;;
75645;SDS011;64237;52.438;13.240;2023-03-20T16:09:46;14.38;;;5.93;;
75645;SDS011;64237;52.438;13.240;2023-03-20T16:12:14;16.02;;;6.88;;
75645;SDS011;64237;52.438;13.240;2023-03-20T16:14:45;14.52;;;6.00;;
75645;SDS011;64237;52.438;13.240;2023-03-20T16:17:12;14.75;;;6.20;;
75645;SDS011;64237;52.438;13.240;2023-03-20T16:19:39;15.98;;;6.32;;
75645;SDS011;64237;52.438;13.240;2023-03-20T16:22:11;14.98;;;6.43;;
75645;SDS011;64237;52.438;13.240;2023-03-20T16:24:44;14.70;;;6.00;;
75645;SDS011;64237;52.438;13.240;2023-03-20T16:27:12;15.82;;;5.53;;
75645;SDS011;64237;52.438;13.240;2023-03-20T16:29:44;14.30;;;5.85;;
75645;SDS011;64237;52.438;13.240;2023-03-20T16:34:41;13.80;;;6.05;;
75645;SDS011;64237;52.438;13.240;2023-03-20T16:37:30;13.70;;;5.95;;
75645;SDS011;64237;52.438;13.240;2023-03-20T16:40:11;14.73;;;4.32;;
75645;SDS011;64237;52.438;13.240;2023-03-20T16:42:42;12.52;;;5.03;;
75645;SDS011;64237;52.438;13.240;2023-03-20T16:45:16;11.90;;;4.43;;
75645;SDS011;64237;52.438;13.240;2023-03-20T16:47:49;14.48;;;5.50;;
75645;SDS011;64237;52.438;13.240;2023-03-20T16:52:44;11.50;;;5.32;;
75645;SDS011;64237;52.438;13.240;2023-03-20T16:55:14;13.63;;;5.90;;
75645;SDS011;64237;52.438;13.240;2023-03-20T16:57:46;15.43;;;6.45;;
75645;SDS011;64237;52.438;13.240;2023-03-20T17:00:41;13.80;;;5.72;;
75645;SDS011;64237;52.438;13.240;2023-03-20T17:03:12;14.30;;;5.93;;
75645;SDS011;64237;52.438;13.240;2023-03-20T17:05:43;14.77;;;6.05;;
75645;SDS011;64237;52.438;13.240;2023-03-20T17:08:10;14.35;;;5.63;;
75645;SDS011;64237;52.438;13.240;2023-03-20T17:10:41;15.80;;;6.88;;
75645;SDS011;64237;52.438;13.240;2023-03-20T17:13:08;13.52;;;5.72;;
75645;SDS011;64237;52.438;13.240;2023-03-20T17:15:33;16.40;;;6.77;;
75645;SDS011;64237;52.438;13.240;2023-03-20T17:17:59;15.65;;;6.68;;
75645;SDS011;64237;52.438;13.240;2023-03-20T17:20:26;15.30;;;6.17;;
75645;SDS011;64237;52.438;13.240;2023-03-20T17:22:52;13.35;;;5.90;;
75645;SDS011;64237;52.438;13.240;2023-03-20T17:25:18;15.13;;;6.70;;
75645;SDS011;64237;52.438;13.240;2023-03-20T17:27:44;16.67;;;6.80;;
75645;SDS011;64237;52.438;13.240;2023-03-20T17:30:17;15.25;;;6.43;;